To NAV CANADA Home Page Login to a new session Search on AWWS site Feedback and Comments Disclaimer Vers la page française équivalente Tips FAQ What's new on the site To the Forecasts and Observations / NOTAM section To "File a Flight Plan" website Publications and other links Update of the User's profile FIC Telephone Numbers My Weather Data Folder Route Weather Data Regional Weather Data Local Weather Data To the Forecasts and Observations / NOTAM section
Request Generated 05/27/2016 at 14:06:48 UTC . Weather information available at that time is displayed.

METAR/TAF

CALGARY INTL/AB    

METAR CYYC 271400Z 35012KT 15SM OVC010 08/06 A2980 RMK SC8 SLP107
DENSITY ALT 3800FT=
SPECI CYYC 271354Z 36011KT 15SM OVC010 08/06 A2980 RMK SC8 SLP108
DENSITY ALT 3800FT=
METAR CYYC 271300Z 34011KT 10SM OVC008 08/06 A2980 RMK SC8 SLP108
DENSITY ALT 3700FT=
METAR CYYC 271200Z 34014KT 6SM BR OVC007 08/06 A2978 RMK SC8 SLP096
DENSITY ALT 3800FT=

TAF CYYC 271141Z 2712/2812 35012KT P6SM SCT008 OVC030 TEMPO 2712/2716
5SM -SHRA BR OVC008
FM271600 36010KT P6SM SCT012 BKN040 TEMPO 2716/2720 P6SM -SHRA
OVC012
FM272000 VRB03KT P6SM -SHRA SCT015 BKN040 TEMPO 2720/2801 BKN015
OVC040 PROB30 2720/2801 4SM TSRA OVC015CB
FM280100 30008KT P6SM SCT050
BECMG 2804/2806 26008KT FEW060 FEW200
RMK NXT FCST BY 271500Z=
Your time UTC time
Weather data provided by Environment Canada and NAV CANADA